Time;durP1;ratioP1;P1;durP2;ratioP2;P2;SDS_P1;SDS_P2;PMS_P1;PMS_P2;Temp;Humidity;BMP_temperature;BMP_pressure;BME280_temperature;BME280_humidity;BME280_pressure;Samples;Min_cycle;Max_cycle;Signal;HPM_P1;HPM_P2
2023/07/02 00:01:54;;;;;;;16.93;16.43;;;23.60;97.10;;;;;;5012793;28;20600;-64
2023/07/02 00:04:21;;;;;;;17.93;17.03;;;23.50;97.10;;;;;;5012595;28;20572;-62
2023/07/02 00:06:48;;;;;;;17.73;17.13;;;23.60;97.10;;;;;;5012283;28;20573;-63
2023/07/02 00:09:16;;;;;;;17.27;16.63;;;23.50;97.20;;;;;;5012475;28;20541;-65
2023/07/02 00:11:45;;;;;;;17.70;17.00;;;23.50;97.10;;;;;;5012503;28;20478;-64
2023/07/02 00:14:13;;;;;;;18.97;18.27;;;23.50;97.30;;;;;;5012336;28;20457;-65
2023/07/02 00:16:44;;;;;;;17.63;17.03;;;23.50;97.20;;;;;;5012185;28;20549;-64
2023/07/02 00:19:12;;;;;;;17.40;16.80;;;23.50;97.20;;;;;;5012337;28;20530;-63
2023/07/02 00:21:40;;;;;;;17.60;17.00;;;23.50;97.10;;;;;;5012313;28;20450;-64
2023/07/02 00:24:09;;;;;;;17.63;17.10;;;23.50;97.10;;;;;;5011714;28;20486;-63
2023/07/02 00:26:37;;;;;;;18.10;17.53;;;23.40;97.20;;;;;;5011878;28;20549;-66
2023/07/02 00:29:05;;;;;;;17.50;16.90;;;23.40;97.20;;;;;;5012329;28;20449;-64
2023/07/02 00:31:33;;;;;;;18.73;18.10;;;23.40;97.10;;;;;;5012217;28;20450;-63
2023/07/02 00:34:02;;;;;;;17.90;17.20;;;23.40;97.00;;;;;;5012076;28;20446;-63
2023/07/02 00:36:29;;;;;;;18.47;17.77;;;23.50;97.00;;;;;;5011904;28;20575;-64
2023/07/02 00:38:56;;;;;;;16.50;16.00;;;23.50;96.80;;;;;;5012201;28;20533;-63
2023/07/02 00:41:23;;;;;;;19.00;18.30;;;23.50;96.80;;;;;;5012007;28;21017;-64
2023/07/02 00:43:54;;;;;;;19.30;18.43;;;23.40;96.70;;;;;;5011920;28;20571;-63
2023/07/02 00:46:22;;;;;;;21.30;20.20;;;23.40;96.60;;;;;;5011721;28;20505;-63
2023/07/02 00:48:50;;;;;;;22.50;21.70;;;23.40;96.50;;;;;;5011856;28;20473;-64
2023/07/02 00:51:19;;;;;;;19.23;18.40;;;23.40;96.40;;;;;;5012150;28;20554;-64
2023/07/02 00:53:46;;;;;;;19.20;18.40;;;23.40;96.20;;;;;;5012019;28;20545;-64
2023/07/02 00:56:13;;;;;;;20.37;19.57;;;23.40;96.10;;;;;;5011858;28;20560;-62
2023/07/02 00:58:48;;;;;;;19.80;18.80;;;23.40;96.00;;;;;;5011816;28;20529;-64
2023/07/02 01:01:15;;;;;;;20.10;19.20;;;23.40;95.90;;;;;;5011849;28;20450;-64
2023/07/02 01:03:53;;;;;;;19.57;18.47;;;23.30;95.60;;;;;;5011666;28;20941;-62
2023/07/02 01:06:25;;;;;;;20.00;19.20;;;23.40;95.60;;;;;;5012024;28;20481;-66
2023/07/02 01:08:56;;;;;;;19.60;18.90;;;23.40;95.40;;;;;;5011614;28;20454;-64
2023/07/02 01:11:27;;;;;;;21.07;20.07;;;23.40;95.30;;;;;;5011626;28;20474;-64
2023/07/02 01:13:58;;;;;;;19.27;18.33;;;23.30;95.10;;;;;;5011774;28;20442;-63
2023/07/02 01:16:25;;;;;;;20.03;19.23;;;23.40;95.00;;;;;;5011332;28;20905;-64
2023/07/02 01:18:54;;;;;;;18.67;17.97;;;23.30;94.80;;;;;;5011611;28;20881;-63
2023/07/02 01:21:24;;;;;;;20.20;19.30;;;23.30;94.70;;;;;;5011642;28;20497;-64
2023/07/02 01:23:51;;;;;;;20.80;19.90;;;23.30;94.70;;;;;;5011504;28;20442;-63
2023/07/02 01:26:18;;;;;;;22.17;21.07;;;23.30;94.50;;;;;;5011296;28;20557;-62
2023/07/02 01:28:45;;;;;;;21.37;20.47;;;23.30;94.40;;;;;;5011396;28;21014;-64
2023/07/02 01:31:12;;;;;;;20.40;19.40;;;23.30;94.30;;;;;;5011416;28;20496;-64
2023/07/02 01:33:39;;;;;;;23.87;22.43;;;23.30;94.20;;;;;;5011482;28;20446;-63
2023/07/02 01:36:06;;;;;;;20.70;19.90;;;23.30;94.20;;;;;;5012378;28;20552;-64
2023/07/02 01:38:35;;;;;;;21.10;20.10;;;23.30;94.00;;;;;;5015228;28;20525;-63
2023/07/02 01:41:02;;;;;;;19.83;19.03;;;23.30;94.00;;;;;;5015268;28;20453;-63
2023/07/02 01:43:29;;;;;;;19.87;19.07;;;23.30;93.90;;;;;;5015243;28;20545;-62
2023/07/02 01:45:56;;;;;;;20.23;19.10;;;23.30;93.80;;;;;;5014950;28;20580;-64
2023/07/02 01:48:23;;;;;;;21.37;20.37;;;23.20;93.70;;;;;;5015090;28;20604;-64
2023/07/02 01:50:50;;;;;;;21.97;20.87;;;23.30;93.70;;;;;;5015040;28;20533;-64
2023/07/02 01:53:17;;;;;;;21.10;19.90;;;23.20;93.50;;;;;;5015047;28;20541;-64
2023/07/02 01:55:45;;;;;;;21.33;20.13;;;23.30;93.50;;;;;;5014932;28;20553;-64
2023/07/02 01:58:12;;;;;;;20.03;19.03;;;23.20;93.30;;;;;;5014727;28;20541;-64
2023/07/02 02:00:39;;;;;;;20.33;19.30;;;23.30;93.30;;;;;;5015025;28;20532;-65
2023/07/02 02:03:06;;;;;;;23.43;22.30;;;23.20;93.20;;;;;;5014974;28;20549;-65
2023/07/02 02:05:33;;;;;;;23.73;22.57;;;23.20;93.10;;;;;;5014748;28;20497;-63
2023/07/02 02:08:00;;;;;;;23.23;22.00;;;23.20;93.00;;;;;;5014530;28;20537;-65
2023/07/02 02:10:26;;;;;;;23.70;22.33;;;23.20;92.80;;;;;;5014817;28;20561;-64
2023/07/02 02:12:55;;;;;;;22.80;21.67;;;23.20;92.90;;;;;;5014661;28;20533;-64
2023/07/02 02:15:21;;;;;;;23.07;21.87;;;23.20;92.90;;;;;;5014694;28;20540;-64
2023/07/02 02:17:48;;;;;;;21.90;20.80;;;23.20;92.80;;;;;;5014462;28;20533;-65
2023/07/02 02:20:15;;;;;;;22.27;20.97;;;23.20;92.70;;;;;;5014587;28;20496;-63
2023/07/02 02:22:42;;;;;;;24.10;22.70;;;23.20;92.70;;;;;;5014513;28;20482;-64
2023/07/02 02:25:10;;;;;;;23.87;22.40;;;23.10;92.60;;;;;;5014291;28;20569;-63
2023/07/02 02:27:37;;;;;;;23.77;22.37;;;23.10;92.50;;;;;;5014283;28;20486;-64
2023/07/02 02:30:07;;;;;;;23.17;21.77;;;23.10;92.40;;;;;;5014418;28;20785;-64
2023/07/02 02:32:34;;;;;;;24.67;23.10;;;23.10;92.40;;;;;;5014432;28;20481;-67
2023/07/02 02:35:01;;;;;;;23.13;21.87;;;23.10;92.30;;;;;;5014281;28;20579;-66
2023/07/02 02:37:29;;;;;;;25.17;23.77;;;23.10;92.30;;;;;;5013915;28;20529;-66
2023/07/02 02:39:57;;;;;;;24.73;23.43;;;23.10;92.20;;;;;;5014250;28;20503;-66
2023/07/02 02:42:24;;;;;;;24.80;23.40;;;23.10;92.10;;;;;;5014424;28;20454;-66
2023/07/02 02:44:50;;;;;;;25.77;24.37;;;23.10;92.00;;;;;;5014014;28;21100;-66
2023/07/02 02:47:19;;;;;;;24.10;22.60;;;23.10;91.90;;;;;;5013054;28;21018;-67
2023/07/02 02:49:46;;;;;;;28.00;26.00;;;23.10;91.90;;;;;;5014187;28;20450;-66
2023/07/02 02:52:14;;;;;;;22.90;21.73;;;23.10;91.90;;;;;;5014005;28;20794;-60
2023/07/02 02:54:41;;;;;;;23.30;22.00;;;23.10;91.80;;;;;;5013878;28;20449;-61
2023/07/02 02:57:08;;;;;;;26.00;24.33;;;23.10;91.80;;;;;;5013725;28;20488;-62
2023/07/02 02:59:35;;;;;;;24.47;23.17;;;23.10;91.80;;;;;;5013806;28;20530;-63
2023/07/02 03:02:01;;;;;;;24.47;23.13;;;23.10;91.80;;;;;;5013748;28;20536;-62
2023/07/02 03:04:30;;;;;;;24.33;23.03;;;23.00;91.70;;;;;;5013615;28;20533;-62
2023/07/02 03:06:56;;;;;;;25.43;23.83;;;23.10;91.80;;;;;;5013671;28;20905;-63
2023/07/02 03:09:23;;;;;;;24.70;23.20;;;23.10;91.70;;;;;;5013575;28;20504;-60
2023/07/02 03:11:50;;;;;;;23.83;22.50;;;23.00;91.60;;;;;;5013535;28;20537;-65
2023/07/02 03:14:17;;;;;;;25.70;24.00;;;23.00;91.60;;;;;;5013514;28;20478;-61
2023/07/02 03:16:46;;;;;;;25.57;24.17;;;23.00;91.50;;;;;;5013607;28;20497;-65
2023/07/02 03:19:14;;;;;;;25.90;24.00;;;23.00;91.50;;;;;;5013395;28;20576;-63
2023/07/02 03:21:43;;;;;;;26.40;24.70;;;23.00;91.40;;;;;;5013681;28;20461;-61
2023/07/02 03:24:11;;;;;;;27.77;26.17;;;23.00;91.40;;;;;;5013418;28;20533;-62
2023/07/02 03:26:38;;;;;;;26.00;24.60;;;23.00;91.40;;;;;;5013116;28;20489;-60
2023/07/02 03:29:05;;;;;;;26.70;24.77;;;23.00;91.40;;;;;;5013189;28;20541;-60
2023/07/02 03:31:32;;;;;;;27.30;25.63;;;23.00;91.30;;;;;;5013195;28;20537;-63
2023/07/02 03:33:59;;;;;;;24.73;23.27;;;23.00;91.30;;;;;;5013177;28;21049;-66
2023/07/02 03:36:26;;;;;;;26.47;24.87;;;23.00;91.30;;;;;;5012918;28;20544;-63
2023/07/02 03:38:54;;;;;;;27.07;25.30;;;23.00;91.30;;;;;;5013089;28;20478;-63
2023/07/02 03:41:21;;;;;;;26.17;24.47;;;23.00;91.30;;;;;;5013011;28;20536;-65
2023/07/02 03:43:48;;;;;;;26.80;25.20;;;23.00;91.40;;;;;;5013021;28;20541;-62
2023/07/02 03:46:15;;;;;;;27.17;25.47;;;22.90;91.30;;;;;;5012776;28;20570;-62
2023/07/02 03:48:42;;;;;;;25.13;23.60;;;23.00;91.30;;;;;;5012927;28;20537;-61
2023/07/02 03:51:09;;;;;;;25.67;24.07;;;22.90;91.30;;;;;;5012834;28;20533;-62
2023/07/02 03:53:35;;;;;;;27.10;25.50;;;23.00;91.30;;;;;;5012897;28;20537;-65
2023/07/02 03:56:04;;;;;;;26.80;24.73;;;23.00;91.30;;;;;;5012537;28;20552;-64
2023/07/02 03:58:31;;;;;;;26.60;24.97;;;23.00;91.30;;;;;;5012567;28;20480;-60
2023/07/02 04:00:58;;;;;;;28.37;26.40;;;22.90;91.30;;;;;;5012751;28;20536;-65
2023/07/02 04:03:25;;;;;;;28.17;26.40;;;23.00;91.30;;;;;;5012741;28;21008;-63
2023/07/02 04:05:51;;;;;;;29.23;27.20;;;22.90;91.30;;;;;;5012313;28;20486;-65
2023/07/02 04:08:20;;;;;;;27.57;25.70;;;23.00;91.30;;;;;;5012444;28;21028;-61
2023/07/02 04:10:47;;;;;;;31.13;29.13;;;23.00;91.30;;;;;;5012803;28;20454;-60
2023/07/02 04:13:15;;;;;;;29.30;27.30;;;22.90;91.30;;;;;;5012462;28;20536;-65
2023/07/02 04:15:42;;;;;;;29.93;28.27;;;22.90;91.30;;;;;;5012344;28;20504;-59
2023/07/02 04:18:09;;;;;;;28.83;27.13;;;22.90;91.30;;;;;;5012147;28;20455;-61
2023/07/02 04:20:38;;;;;;;30.90;28.90;;;22.90;91.30;;;;;;5012305;28;20484;-64
2023/07/02 04:23:05;;;;;;;30.70;28.80;;;22.90;91.30;;;;;;5012320;28;20446;-60
2023/07/02 04:25:32;;;;;;;29.10;27.20;;;23.00;91.30;;;;;;5012401;28;21040;-58
2023/07/02 04:27:59;;;;;;;30.30;28.03;;;22.90;91.30;;;;;;5012085;28;20532;-63
2023/07/02 04:30:27;;;;;;;31.73;29.37;;;22.90;91.30;;;;;;5012306;28;21021;-60
2023/07/02 04:32:54;;;;;;;30.77;28.97;;;22.90;91.40;;;;;;5012268;28;20874;-60
2023/07/02 04:35:21;;;;;;;30.73;28.47;;;22.90;91.30;;;;;;5012000;28;20546;-64
2023/07/02 04:37:48;;;;;;;30.83;28.67;;;22.90;91.40;;;;;;5011923;28;20980;-61
2023/07/02 04:40:15;;;;;;;32.47;30.40;;;22.90;91.40;;;;;;5012060;28;20473;-64
2023/07/02 04:42:46;;;;;;;32.80;30.43;;;22.90;91.40;;;;;;5012165;28;20457;-63
2023/07/02 04:45:14;;;;;;;30.73;28.73;;;22.90;91.40;;;;;;5011916;28;20489;-60
2023/07/02 04:47:43;;;;;;;31.03;28.77;;;22.90;91.50;;;;;;5011744;28;20449;-63
2023/07/02 04:50:11;;;;;;;29.17;27.43;;;22.90;91.50;;;;;;5012013;28;20533;-60
2023/07/02 04:52:38;;;;;;;30.00;28.00;;;22.90;91.50;;;;;;5011968;28;20547;-67
2023/07/02 04:55:06;;;;;;;30.50;28.40;;;22.80;91.50;;;;;;5011887;28;20553;-65
2023/07/02 04:57:32;;;;;;;32.57;30.37;;;22.80;91.60;;;;;;5011625;28;20528;-60
2023/07/02 04:59:59;;;;;;;32.20;30.10;;;22.80;91.70;;;;;;5011736;28;20532;-64
2023/07/02 05:02:26;;;;;;;31.80;29.73;;;22.80;91.70;;;;;;5011681;28;20525;-65
2023/07/02 05:04:54;;;;;;;30.73;28.73;;;22.90;91.70;;;;;;5011457;28;20528;-64
2023/07/02 05:07:21;;;;;;;31.70;29.53;;;22.90;91.70;;;;;;5011486;28;20532;-64
2023/07/02 05:09:51;;;;;;;30.43;28.43;;;22.80;91.60;;;;;;5011696;28;20525;-64
2023/07/02 05:12:18;;;;;;;31.67;29.50;;;22.80;91.70;;;;;;5011284;28;20461;-66
2023/07/02 05:14:45;;;;;;;32.00;29.50;;;22.90;91.70;;;;;;5011520;28;20965;-65
2023/07/02 05:17:13;;;;;;;33.17;30.47;;;22.90;91.80;;;;;;5011420;28;20529;-65
2023/07/02 05:19:40;;;;;;;33.00;30.80;;;22.80;91.80;;;;;;5011569;28;20832;-65
2023/07/02 05:22:09;;;;;;;30.73;28.57;;;22.80;91.80;;;;;;5011514;28;20454;-61
2023/07/02 05:24:35;;;;;;;32.83;30.63;;;22.80;91.80;;;;;;5011602;28;20537;-67
2023/07/02 05:27:02;;;;;;;31.83;29.60;;;22.80;91.80;;;;;;5011178;28;20580;-66
2023/07/02 05:29:29;;;;;;;32.23;29.70;;;22.80;91.90;;;;;;5011470;28;20533;-66
2023/07/02 05:31:56;;;;;;;30.23;28.10;;;22.80;91.90;;;;;;5011480;28;20529;-63
2023/07/02 05:34:23;;;;;;;32.70;30.53;;;22.80;92.10;;;;;;5011400;28;20530;-64
2023/07/02 05:36:50;;;;;;;30.77;28.80;;;22.80;92.10;;;;;;5011129;28;20549;-65
2023/07/02 05:39:18;;;;;;;31.90;29.70;;;22.80;92.00;;;;;;5011394;28;20537;-59
2023/07/02 05:41:45;;;;;;;31.73;29.33;;;22.80;92.10;;;;;;5011291;28;20537;-65
2023/07/02 05:44:12;;;;;;;32.03;29.70;;;22.80;92.10;;;;;;5011438;28;20553;-65
2023/07/02 05:46:39;;;;;;;31.77;29.50;;;22.80;92.10;;;;;;5010938;28;20933;-65
2023/07/02 05:49:06;;;;;;;32.30;29.90;;;22.80;92.20;;;;;;5011151;28;20544;-63
2023/07/02 05:51:33;;;;;;;32.90;30.57;;;22.80;92.20;;;;;;5011337;28;20450;-64
2023/07/02 05:54:00;;;;;;;38.17;35.00;;;22.80;92.20;;;;;;5011330;28;20540;-61
2023/07/02 05:56:28;;;;;;;32.57;30.07;;;22.80;92.10;;;;;;5010968;28;20497;-64
2023/07/02 05:58:55;;;;;;;32.40;30.20;;;22.80;92.10;;;;;;5011203;28;20872;-64
2023/07/02 06:01:22;;;;;;;33.03;30.73;;;22.80;92.10;;;;;;5011119;28;20888;-64
2023/07/02 06:03:50;;;;;;;31.13;29.23;;;22.80;92.10;;;;;;5011147;28;20878;-64
2023/07/02 06:06:17;;;;;;;31.90;29.87;;;22.80;92.10;;;;;;5010744;28;20580;-64
2023/07/02 06:08:44;;;;;;;32.83;30.23;;;22.80;92.00;;;;;;5011257;28;20529;-64
2023/07/02 06:11:11;;;;;;;34.53;32.07;;;22.80;92.00;;;;;;5011020;28;20545;-64
2023/07/02 06:13:39;;;;;;;34.83;32.20;;;22.80;92.00;;;;;;5011122;28;20890;-61
2023/07/02 06:16:06;;;;;;;33.27;30.97;;;22.80;92.00;;;;;;5010869;28;20497;-61
2023/07/02 06:18:33;;;;;;;32.07;29.77;;;22.80;92.00;;;;;;5010957;28;20517;-64
2023/07/02 06:21:00;;;;;;;34.40;32.17;;;22.80;92.00;;;;;;5011193;28;20533;-61
2023/07/02 06:23:28;;;;;;;32.43;29.87;;;22.70;92.00;;;;;;5012648;28;20541;-64
2023/07/02 06:25:58;;;;;;;32.30;30.10;;;22.80;91.90;;;;;;5014309;28;20507;-64
2023/07/02 06:28:25;;;;;;;33.00;30.80;;;22.80;91.90;;;;;;5014435;28;21155;-64
2023/07/02 06:30:54;;;;;;;34.70;32.27;;;22.80;91.80;;;;;;5014365;28;20494;-65
2023/07/02 06:33:20;;;;;;;33.50;31.30;;;22.80;91.80;;;;;;5014373;28;21032;-62
2023/07/02 06:35:47;;;;;;;34.80;32.23;;;22.80;91.90;;;;;;5014251;28;21022;-64
2023/07/02 06:38:14;;;;;;;33.17;31.00;;;22.70;91.90;;;;;;5014093;28;20877;-60
2023/07/02 06:40:41;;;;;;;32.40;30.03;;;22.80;91.90;;;;;;5014173;28;20850;-62
2023/07/02 06:43:08;;;;;;;33.10;30.80;;;22.80;92.00;;;;;;5014212;28;20882;-66
2023/07/02 06:45:35;;;;;;;34.43;31.77;;;22.80;92.00;;;;;;5013937;28;20562;-56
2023/07/02 06:48:03;;;;;;;33.33;30.70;;;22.80;92.00;;;;;;5013926;28;20801;-66
2023/07/02 06:50:30;;;;;;;32.77;30.37;;;22.80;91.90;;;;;;5014104;28;20553;-65
2023/07/02 06:52:57;;;;;;;33.50;31.30;;;22.80;91.90;;;;;;5013975;28;20486;-62
2023/07/02 06:55:24;;;;;;;33.40;30.80;;;22.80;91.90;;;;;;5013843;28;20541;-63
2023/07/02 06:57:50;;;;;;;34.00;31.47;;;22.80;91.90;;;;;;5013729;28;20530;-65
2023/07/02 07:00:18;;;;;;;34.03;31.73;;;22.70;91.80;;;;;;5014007;28;20641;-63
2023/07/02 07:02:44;;;;;;;34.70;32.33;;;22.80;91.90;;;;;;5013762;28;20541;-62
2023/07/02 07:05:13;;;;;;;34.40;32.00;;;22.80;91.80;;;;;;5014241;28;20681;-61
2023/07/02 07:07:40;;;;;;;32.07;30.10;;;22.80;91.70;;;;;;5013520;28;20524;-56
2023/07/02 07:10:08;;;;;;;32.07;29.77;;;22.80;91.60;;;;;;5013657;28;20542;-64
2023/07/02 07:12:35;;;;;;;32.10;30.13;;;22.80;91.60;;;;;;5013585;28;20538;-64
2023/07/02 07:15:02;;;;;;;32.93;30.57;;;22.80;91.50;;;;;;5013455;28;20469;-63
2023/07/02 07:17:29;;;;;;;31.70;29.57;;;22.80;91.30;;;;;;5013302;28;20446;-63
2023/07/02 07:19:56;;;;;;;32.03;29.77;;;22.80;91.20;;;;;;5013493;28;20533;-61
2023/07/02 07:22:24;;;;;;;32.47;30.27;;;22.70;91.10;;;;;;5013421;28;20528;-63
2023/07/02 07:24:51;;;;;;;32.50;30.40;;;22.70;91.00;;;;;;5013302;28;20540;-64
2023/07/02 07:27:18;;;;;;;32.97;30.80;;;22.80;90.90;;;;;;5013123;28;20580;-61
2023/07/02 07:29:44;;;;;;;33.53;31.33;;;22.80;90.70;;;;;;5013157;28;20533;-57
2023/07/02 07:32:11;;;;;;;32.07;29.90;;;22.80;90.60;;;;;;5013253;28;20600;-64
2023/07/02 07:34:38;;;;;;;33.77;31.47;;;22.80;90.50;;;;;;5012933;28;20893;-63
2023/07/02 07:37:06;;;;;;;31.10;29.00;;;22.70;90.10;;;;;;5012940;28;20880;-62
2023/07/02 07:39:34;;;;;;;32.50;30.17;;;22.80;89.70;;;;;;5013156;28;20534;-65
2023/07/02 07:42:01;;;;;;;32.83;30.83;;;22.70;89.00;;;;;;5021667;28;20477;-61
2023/07/02 07:44:29;;;;;;;31.03;28.93;;;22.70;88.50;;;;;;5029798;28;20524;-65
2023/07/02 07:46:56;;;;;;;31.07;28.77;;;22.80;89.80;;;;;;5032721;28;20491;-66
2023/07/02 07:49:23;;;;;;;29.37;27.20;;;22.80;88.40;;;;;;5033284;28;20452;-67
2023/07/02 07:51:50;;;;;;;30.07;28.07;;;22.80;87.20;;;;;;5030645;28;20536;-67
2023/07/02 07:54:17;;;;;;;30.57;28.67;;;22.70;85.90;;;;;;5013995;28;20532;-64
2023/07/02 07:56:45;;;;;;;31.40;29.03;;;22.70;85.30;;;;;;5012702;28;20517;-62
2023/07/02 07:59:14;;;;;;;30.30;28.20;;;22.80;85.40;;;;;;5012800;28;20537;-64
2023/07/02 08:01:41;;;;;;;31.33;29.20;;;22.80;84.50;;;;;;5016836;28;20446;-64
2023/07/02 08:04:08;;;;;;;32.13;29.50;;;22.80;84.00;;;;;;5017288;28;20953;-63
2023/07/02 08:06:35;;;;;;;32.37;30.13;;;22.80;84.10;;;;;;5012856;28;20569;-65
2023/07/02 08:09:03;;;;;;;33.70;29.63;;;22.80;84.30;;;;;;5012462;28;20457;-64
2023/07/02 08:11:30;;;;;;;29.50;27.60;;;22.80;84.40;;;;;;5012823;28;20442;-65
2023/07/02 08:13:58;;;;;;;32.60;30.00;;;22.80;84.50;;;;;;5027499;28;20485;-65
2023/07/02 08:16:25;;;;;;;29.20;27.30;;;22.90;85.00;;;;;;5032131;28;20544;-64
2023/07/02 08:18:52;;;;;;;32.50;30.20;;;22.90;84.60;;;;;;5032128;28;20479;-64
2023/07/02 08:21:19;;;;;;;32.27;29.97;;;22.90;84.40;;;;;;5030532;28;20529;-64
2023/07/02 08:23:46;;;;;;;31.30;29.27;;;22.90;85.00;;;;;;5032102;28;20535;-65
2023/07/02 08:26:14;;;;;;;30.70;28.77;;;22.90;85.00;;;;;;5031822;28;20520;-62
2023/07/02 08:28:41;;;;;;;31.93;29.80;;;23.00;85.20;;;;;;5032046;28;20537;-64
2023/07/02 08:31:09;;;;;;;35.77;32.50;;;23.00;85.10;;;;;;5031983;28;20957;-61
2023/07/02 08:33:36;;;;;;;31.90;29.80;;;23.00;84.30;;;;;;5032528;28;20445;-65
2023/07/02 08:36:03;;;;;;;31.00;28.40;;;22.90;83.10;;;;;;5031736;28;20512;-65
2023/07/02 08:38:30;;;;;;;32.07;29.27;;;23.00;83.80;;;;;;5031903;28;20853;-65
2023/07/02 08:40:57;;;;;;;31.00;29.00;;;23.20;83.30;;;;;;5031831;28;20532;-62
2023/07/02 08:43:27;;;;;;;32.53;30.23;;;23.10;82.50;;;;;;5030189;28;20865;-59
2023/07/02 08:45:54;;;;;;;33.03;30.43;;;23.10;82.70;;;;;;5030974;28;20469;-59
2023/07/02 08:48:24;;;;;;;34.17;31.70;;;23.20;82.80;;;;;;5031474;28;20571;-60
2023/07/02 08:50:51;;;;;;;33.80;31.23;;;23.10;82.30;;;;;;5031717;28;20948;-58
2023/07/02 08:53:18;;;;;;;32.20;29.87;;;23.10;82.10;;;;;;5015238;28;20541;-65
2023/07/02 08:55:45;;;;;;;33.30;30.60;;;23.20;82.30;;;;;;5011758;28;20466;-64
2023/07/02 08:58:12;;;;;;;33.00;30.50;;;23.20;82.40;;;;;;5011433;28;20493;-56
2023/07/02 09:00:39;;;;;;;34.13;31.60;;;23.20;82.00;;;;;;5011802;28;20633;-63
2023/07/02 09:03:15;;;;;;;32.53;30.13;;;23.20;81.60;;;;;;5012640;28;20450;-61
2023/07/02 09:05:52;;;;;;;31.83;29.73;;;23.10;81.20;;;;;;5011766;28;20484;-63
2023/07/02 09:08:27;;;;;;;32.23;30.20;;;23.20;81.80;;;;;;5011519;28;20849;-66
2023/07/02 09:10:54;;;;;;;33.13;30.80;;;23.20;82.80;;;;;;5011593;28;20876;-61
2023/07/02 09:13:21;;;;;;;34.07;31.97;;;23.20;81.30;;;;;;5027339;28;20536;-59
2023/07/02 09:15:48;;;;;;;31.53;29.20;;;23.10;80.90;;;;;;5031224;28;20543;-62
2023/07/02 09:18:19;;;;;;;33.73;31.40;;;23.20;81.50;;;;;;5031963;28;20479;-67
2023/07/02 09:20:47;;;;;;;32.47;30.47;;;23.20;82.30;;;;;;5031501;28;20528;-64
2023/07/02 09:23:16;;;;;;;33.10;30.70;;;23.30;81.60;;;;;;5031326;28;20994;-64
2023/07/02 09:25:42;;;;;;;29.93;28.03;;;23.30;81.30;;;;;;5030965;28;20556;-65
2023/07/02 09:28:16;;;;;;;33.50;31.10;;;23.30;81.10;;;;;;5031468;28;20580;-62
2023/07/02 09:30:54;;;;;;;34.77;32.30;;;23.30;80.70;;;;;;5031577;28;20532;-66
2023/07/02 09:33:21;;;;;;;33.27;30.83;;;23.30;80.90;;;;;;5031120;28;20536;-67
2023/07/02 09:35:50;;;;;;;31.70;29.33;;;23.30;81.40;;;;;;5030431;28;20552;-66
2023/07/02 09:38:19;;;;;;;32.53;30.03;;;23.30;81.20;;;;;;5011191;28;20445;-66
2023/07/02 09:40:48;;;;;;;31.83;29.43;;;23.30;81.30;;;;;;5011462;28;20536;-60
2023/07/02 09:43:15;;;;;;;32.17;29.70;;;23.30;81.10;;;;;;5011297;28;20446;-66
2023/07/02 09:45:45;;;;;;;33.33;30.83;;;23.30;81.40;;;;;;5011419;28;20570;-58
2023/07/02 09:48:15;;;;;;;33.53;31.10;;;23.40;82.70;;;;;;5011249;28;20847;-64
2023/07/02 09:50:43;;;;;;;33.13;30.93;;;23.40;81.90;;;;;;5013250;28;20461;-68
2023/07/02 09:53:10;;;;;;;32.23;30.03;;;23.40;81.40;;;;;;5011301;28;20566;-59
2023/07/02 09:55:38;;;;;;;33.93;31.00;;;23.40;81.00;;;;;;5010954;28;20546;-65
2023/07/02 09:58:06;;;;;;;32.60;30.30;;;23.40;80.50;;;;;;5013659;28;20529;-66
2023/07/02 10:00:33;;;;;;;34.47;31.90;;;23.30;80.70;;;;;;5015047;28;20528;-65
2023/07/02 10:03:00;;;;;;;33.13;30.73;;;23.40;81.20;;;;;;5015218;28;20473;-67
2023/07/02 10:05:28;;;;;;;33.17;30.60;;;23.40;81.40;;;;;;5014150;28;20480;-64
2023/07/02 10:07:56;;;;;;;33.83;31.60;;;23.40;81.30;;;;;;5028182;28;20519;-67
2023/07/02 10:10:28;;;;;;;33.30;30.80;;;23.30;80.60;;;;;;5036320;28;20445;-67
2023/07/02 10:12:56;;;;;;;33.10;30.50;;;23.30;79.80;;;;;;5034535;28;20477;-65
2023/07/02 10:15:27;;;;;;;32.60;29.93;;;23.30;80.10;;;;;;5034432;28;21105;-63
2023/07/02 10:17:58;;;;;;;32.80;30.70;;;23.30;80.50;;;;;;5020668;28;20456;-60
2023/07/02 10:20:37;;;;;;;31.83;29.73;;;23.20;79.40;;;;;;5014657;28;20478;-58
2023/07/02 10:23:04;;;;;;;31.83;29.93;;;23.20;79.50;;;;;;5015067;28;20496;-61
2023/07/02 10:25:34;;;;;;;34.27;31.53;;;23.20;79.50;;;;;;5014552;28;20564;-63
2023/07/02 10:28:14;;;;;;;32.37;30.13;;;23.20;79.90;;;;;;5015072;28;20492;-63
2023/07/02 10:30:41;;;;;;;32.63;30.33;;;23.10;80.00;;;;;;5014597;28;20469;-64
2023/07/02 10:33:09;;;;;;;32.07;29.70;;;23.20;79.20;;;;;;5015458;28;20528;-64
2023/07/02 10:35:36;;;;;;;31.97;29.80;;;23.10;76.20;;;;;;5015089;28;20475;-64
2023/07/02 10:38:03;;;;;;;30.93;28.83;;;23.10;74.30;;;;;;5015722;28;20981;-65
2023/07/02 10:40:32;;;;;;;29.43;27.53;;;23.00;72.80;;;;;;5020603;28;20506;-64
2023/07/02 10:43:00;;;;;;;29.83;27.73;;;23.00;72.40;;;;;;5034322;28;20457;-66
2023/07/02 10:45:35;;;;;;;28.90;27.07;;;23.00;71.40;;;;;;5034217;28;20556;-65
2023/07/02 10:48:04;;;;;;;30.50;28.50;;;23.00;71.40;;;;;;5033797;28;20516;-65
2023/07/02 10:50:32;;;;;;;28.67;27.07;;;23.00;70.70;;;;;;5034052;28;20456;-63
2023/07/02 10:52:59;;;;;;;30.20;27.90;;;23.00;68.40;;;;;;5024795;28;20453;-61
2023/07/02 10:55:27;;;;;;;29.20;27.50;;;22.90;67.00;;;;;;5013909;28;20867;-64
2023/07/02 10:58:04;;;;;;;29.23;27.60;;;22.90;66.90;;;;;;5014016;28;20442;-65
2023/07/02 11:00:31;;;;;;;28.77;26.93;;;22.80;66.40;;;;;;5013635;28;20540;-61
2023/07/02 11:03:00;;;;;;;29.63;27.83;;;22.80;67.10;;;;;;5027840;28;20810;-61
2023/07/02 11:05:27;;;;;;;27.40;26.00;;;22.80;67.40;;;;;;5015300;28;21055;-58
2023/07/02 11:07:57;;;;;;;29.40;27.73;;;22.80;67.00;;;;;;5013368;28;20576;-64
2023/07/02 11:10:25;;;;;;;27.80;26.20;;;22.90;67.50;;;;;;5014432;28;20446;-65
2023/07/02 11:12:52;;;;;;;28.83;27.03;;;22.90;67.50;;;;;;5034370;28;20448;-62
2023/07/02 11:15:19;;;;;;;30.40;28.60;;;22.90;67.30;;;;;;5033924;28;20560;-63
2023/07/02 11:17:46;;;;;;;29.97;28.07;;;22.90;67.90;;;;;;5033215;28;20520;-61
2023/07/02 11:20:15;;;;;;;31.40;29.70;;;22.90;68.30;;;;;;5033302;28;20488;-62
2023/07/02 11:22:42;;;;;;;29.23;27.47;;;23.00;68.10;;;;;;5019088;28;20944;-63
2023/07/02 11:25:13;;;;;;;29.53;27.30;;;22.90;67.80;;;;;;5033035;28;20549;-62
2023/07/02 11:27:40;;;;;;;34.47;31.80;;;22.90;67.50;;;;;;5033518;28;20571;-63
2023/07/02 11:30:08;;;;;;;28.20;26.60;;;22.90;67.20;;;;;;5033346;28;20487;-67
2023/07/02 11:32:48;;;;;;;29.33;27.70;;;22.90;66.80;;;;;;5023049;28;20478;-67
2023/07/02 11:35:17;;;;;;;28.80;26.93;;;22.90;64.60;;;;;;5013210;28;20465;-61
2023/07/02 11:37:44;;;;;;;28.87;26.93;;;22.90;63.80;;;;;;5013445;28;20465;-65
2023/07/02 11:40:12;;;;;;;27.40;25.80;;;23.00;63.70;;;;;;5013126;28;20454;-66
2023/07/02 11:42:39;;;;;;;28.47;26.87;;;23.00;63.30;;;;;;5013420;28;20468;-64
2023/07/02 11:45:07;;;;;;;28.30;26.60;;;22.90;63.30;;;;;;5013065;28;20553;-63
2023/07/02 11:47:34;;;;;;;28.00;26.40;;;23.00;63.20;;;;;;5012847;28;20574;-63
2023/07/02 11:50:01;;;;;;;28.70;27.00;;;23.10;63.30;;;;;;5013075;28;20500;-65
2023/07/02 11:52:29;;;;;;;32.17;30.17;;;23.10;62.70;;;;;;5013942;28;20802;-67
2023/07/02 11:54:56;;;;;;;28.17;26.33;;;23.20;62.50;;;;;;5028655;28;21005;-65
2023/07/02 11:57:23;;;;;;;26.40;24.80;;;23.20;62.50;;;;;;5014990;28;20949;-66
2023/07/02 11:59:52;;;;;;;27.83;26.00;;;23.30;62.20;;;;;;5013305;28;20529;-64
2023/07/02 12:02:19;;;;;;;29.10;26.90;;;23.40;62.50;;;;;;5013242;28;20452;-67
2023/07/02 12:04:45;;;;;;;28.53;26.63;;;23.40;62.30;;;;;;5012228;28;20548;-65
2023/07/02 12:07:13;;;;;;;26.87;25.13;;;23.50;62.50;;;;;;5014640;28;20450;-65
2023/07/02 12:09:41;;;;;;;26.53;25.13;;;23.40;62.10;;;;;;5016406;28;20488;-66
2023/07/02 12:12:09;;;;;;;28.53;26.67;;;23.40;61.80;;;;;;5012543;28;20445;-67
2023/07/02 12:14:36;;;;;;;29.37;27.20;;;23.40;61.70;;;;;;5012508;28;20533;-66
2023/07/02 12:17:04;;;;;;;27.70;26.10;;;23.40;60.90;;;;;;5012264;28;20469;-66
2023/07/02 12:19:31;;;;;;;27.33;25.83;;;23.30;60.50;;;;;;5012279;28;20484;-64
2023/07/02 12:21:57;;;;;;;27.70;25.97;;;23.40;60.50;;;;;;5012543;28;20493;-59
2023/07/02 12:24:24;;;;;;;27.30;25.90;;;23.40;59.20;;;;;;5012328;28;20528;-60
2023/07/02 12:26:53;;;;;;;29.20;27.40;;;23.30;58.80;;;;;;5012055;28;20470;-64
2023/07/02 12:29:19;;;;;;;27.57;25.73;;;23.40;59.00;;;;;;5011953;28;20576;-61
2023/07/02 12:31:46;;;;;;;26.97;25.40;;;23.40;57.80;;;;;;5017071;28;20481;-68